Time;durP1;ratioP1;P1;durP2;ratioP2;P2;SDS_P1;SDS_P2;PMS_P1;PMS_P2;Temp;Humidity;BMP_temperature;BMP_pressure;BME280_temperature;BME280_humidity;BME280_pressure;Samples;Min_cycle;Max_cycle;Signal;HPM_P1;HPM_P2
2020/12/31 00:00:14;;;;;;;9.95;4.50;;;;;;;;;;5067676;28;20024;-63
2020/12/31 00:02:40;;;;;;;8.43;4.03;;;;;;;;;;5067627;28;20450;-62
2020/12/31 00:05:07;;;;;;;7.28;4.20;;;;;;;;;;5067007;28;20029;-63
2020/12/31 00:07:33;;;;;;;8.80;4.80;;;;;;;;;;5069749;28;20557;-63
2020/12/31 00:09:59;;;;;;;13.68;5.82;;;;;;;;;;5088289;28;20153;-63
2020/12/31 00:12:25;;;;;;;16.13;7.15;;;;;;;;;;5087531;28;20035;-63
2020/12/31 00:14:52;;;;;;;16.50;8.13;;;;;;;;;;5086303;28;20028;-64
2020/12/31 00:17:18;;;;;;;15.52;7.45;;;;;;;;;;5086932;28;20028;-63
2020/12/31 00:19:45;;;;;;;10.75;6.00;;;;;;;;;;5067291;28;20489;-63
2020/12/31 00:22:11;;;;;;;10.43;5.32;;;;;;;;;;5067407;28;20520;-63
2020/12/31 00:24:38;;;;;;;9.30;4.60;;;;;;;;;;5079820;28;20509;-63
2020/12/31 00:27:04;;;;;;;8.05;4.25;;;;;;;;;;5087461;28;20554;-63
2020/12/31 00:29:30;;;;;;;7.03;3.95;;;;;;;;;;5087000;28;20027;-63
2020/12/31 00:31:57;;;;;;;9.40;3.95;;;;;;;;;;5087539;28;20293;-63
2020/12/31 00:34:24;;;;;;;10.00;5.00;;;;;;;;;;5087070;28;20047;-64
2020/12/31 00:36:51;;;;;;;7.90;4.75;;;;;;;;;;5086411;28;20028;-63
2020/12/31 00:39:17;;;;;;;10.88;5.28;;;;;;;;;;5074550;28;20131;-64
2020/12/31 00:41:43;;;;;;;11.10;5.97;;;;;;;;;;5066806;28;20016;-63
2020/12/31 00:44:09;;;;;;;10.80;4.80;;;;;;;;;;5066953;28;20063;-63
2020/12/31 00:46:35;;;;;;;9.23;4.85;;;;;;;;;;5066379;28;20056;-64
2020/12/31 00:49:01;;;;;;;7.72;4.22;;;;;;;;;;5087409;28;20297;-63
2020/12/31 00:51:28;;;;;;;6.88;4.25;;;;;;;;;;5086829;28;20028;-63
2020/12/31 00:53:55;;;;;;;5.20;3.53;;;;;;;;;;5086506;28;20544;-63
2020/12/31 00:56:21;;;;;;;7.20;3.75;;;;;;;;;;5085323;28;20058;-63
2020/12/31 00:58:47;;;;;;;5.20;3.35;;;;;;;;;;5085266;28;20110;-63
2020/12/31 01:01:13;;;;;;;6.45;3.72;;;;;;;;;;5086716;28;20466;-63
2020/12/31 01:03:40;;;;;;;7.65;4.47;;;;;;;;;;5082225;28;20039;-63
2020/12/31 01:06:07;;;;;;;8.32;4.63;;;;;;;;;;5081176;28;20036;-63
2020/12/31 01:08:33;;;;;;;7.32;3.88;;;;;;;;;;5085824;28;20024;-63
2020/12/31 01:10:59;;;;;;;7.80;4.28;;;;;;;;;;5084597;28;20417;-64
2020/12/31 01:13:26;;;;;;;4.55;2.78;;;;;;;;;;5081989;28;20050;-64
2020/12/31 01:15:53;;;;;;;5.88;3.40;;;;;;;;;;5066502;28;20028;-63
2020/12/31 01:18:20;;;;;;;4.35;2.95;;;;;;;;;;5066064;28;20478;-64
2020/12/31 01:20:46;;;;;;;5.93;3.08;;;;;;;;;;5065854;28;20056;-63
2020/12/31 01:23:12;;;;;;;4.93;2.90;;;;;;;;;;5066230;28;20056;-63
2020/12/31 01:25:39;;;;;;;7.32;3.20;;;;;;;;;;5065731;28;20085;-63
2020/12/31 01:28:05;;;;;;;5.82;3.58;;;;;;;;;;5066164;28;20024;-64
2020/12/31 01:30:32;;;;;;;5.63;3.67;;;;;;;;;;5077281;28;20422;-63
2020/12/31 01:32:58;;;;;;;4.47;2.70;;;;;;;;;;5079300;28;20036;-64
2020/12/31 01:35:24;;;;;;;5.47;2.80;;;;;;;;;;5078238;28;20035;-64
2020/12/31 01:37:51;;;;;;;5.68;3.55;;;;;;;;;;5086507;28;20145;-64
2020/12/31 01:40:18;;;;;;;5.22;3.28;;;;;;;;;;5080541;28;20119;-64
2020/12/31 01:42:44;;;;;;;6.50;2.92;;;;;;;;;;5066348;28;20032;-63
2020/12/31 01:45:10;;;;;;;6.50;3.28;;;;;;;;;;5066196;28;20028;-63
2020/12/31 01:47:37;;;;;;;6.32;3.75;;;;;;;;;;5065992;28;20123;-64
2020/12/31 01:50:04;;;;;;;6.05;3.88;;;;;;;;;;5066985;28;20425;-64
2020/12/31 01:52:32;;;;;;;8.13;4.53;;;;;;;;;;5087507;28;20162;-63
2020/12/31 01:55:00;;;;;;;8.68;5.00;;;;;;;;;;5087314;28;20058;-64
2020/12/31 01:57:27;;;;;;;6.32;4.00;;;;;;;;;;5087121;28;20103;-64
2020/12/31 01:59:54;;;;;;;8.68;4.07;;;;;;;;;;5085019;28;20161;-64
2020/12/31 02:02:20;;;;;;;7.18;4.10;;;;;;;;;;5085970;28;20028;-64
2020/12/31 02:04:49;;;;;;;5.80;3.50;;;;;;;;;;5085671;28;20120;-64
2020/12/31 02:07:15;;;;;;;5.50;3.10;;;;;;;;;;5084757;28;20039;-63
2020/12/31 02:09:43;;;;;;;3.88;2.20;;;;;;;;;;5085952;28;20496;-63
2020/12/31 02:12:09;;;;;;;3.33;2.55;;;;;;;;;;5085391;28;20036;-64
2020/12/31 02:14:35;;;;;;;3.55;2.42;;;;;;;;;;5085675;28;20024;-64
2020/12/31 02:17:02;;;;;;;3.90;2.58;;;;;;;;;;5085385;28;20039;-64
2020/12/31 02:19:29;;;;;;;3.88;2.08;;;;;;;;;;5086043;28;20406;-64
2020/12/31 02:21:55;;;;;;;2.88;1.80;;;;;;;;;;5086016;28;20024;-64
2020/12/31 02:24:21;;;;;;;3.88;2.25;;;;;;;;;;5082561;28;20042;-64
2020/12/31 02:26:48;;;;;;;3.35;2.05;;;;;;;;;;5085369;28;20024;-64
2020/12/31 02:29:14;;;;;;;4.13;2.00;;;;;;;;;;5068199;28;20039;-64
2020/12/31 02:31:41;;;;;;;3.67;2.13;;;;;;;;;;5065141;28;20020;-64
2020/12/31 02:34:07;;;;;;;3.60;2.13;;;;;;;;;;5064895;28;20040;-64
2020/12/31 02:36:34;;;;;;;2.70;2.08;;;;;;;;;;5065179;28;20044;-64
2020/12/31 02:39:03;;;;;;;3.75;2.20;;;;;;;;;;5065576;28;20032;-64
2020/12/31 02:41:29;;;;;;;3.40;2.13;;;;;;;;;;5083717;28;20035;-64
2020/12/31 02:43:55;;;;;;;4.72;2.30;;;;;;;;;;5083888;28;20044;-64
2020/12/31 02:46:21;;;;;;;4.03;2.70;;;;;;;;;;5083977;28;20032;-64
2020/12/31 02:48:48;;;;;;;4.85;2.85;;;;;;;;;;5085025;28;20039;-64
2020/12/31 02:51:14;;;;;;;4.72;2.75;;;;;;;;;;5085337;28;20109;-63
2020/12/31 02:53:40;;;;;;;5.20;2.70;;;;;;;;;;5077274;28;20514;-64
2020/12/31 02:56:09;;;;;;;5.53;2.97;;;;;;;;;;5065050;28;20021;-64
2020/12/31 02:58:36;;;;;;;6.05;3.53;;;;;;;;;;5064732;28;20418;-64
2020/12/31 03:01:02;;;;;;;6.50;3.67;;;;;;;;;;5065010;28;20020;-64
2020/12/31 03:03:28;;;;;;;6.57;3.55;;;;;;;;;;5065325;28;20552;-64
2020/12/31 03:05:54;;;;;;;5.50;2.97;;;;;;;;;;5064577;28;20028;-64
2020/12/31 03:08:20;;;;;;;4.10;2.55;;;;;;;;;;5065230;28;20060;-64
2020/12/31 03:10:46;;;;;;;2.67;2.00;;;;;;;;;;5064042;28;20115;-64
2020/12/31 03:13:12;;;;;;;2.45;1.83;;;;;;;;;;5076945;28;20032;-64
2020/12/31 03:15:38;;;;;;;2.85;2.08;;;;;;;;;;5084046;28;20043;-64
2020/12/31 03:18:05;;;;;;;2.30;1.58;;;;;;;;;;5084754;28;20032;-64
2020/12/31 03:20:31;;;;;;;3.92;2.30;;;;;;;;;;5085388;28;20024;-64
2020/12/31 03:22:58;;;;;;;1.90;1.60;;;;;;;;;;5083824;28;20040;-64
2020/12/31 03:25:25;;;;;;;2.78;1.70;;;;;;;;;;5084822;28;20485;-64
2020/12/31 03:27:52;;;;;;;2.50;1.60;;;;;;;;;;5084587;28;20032;-64
2020/12/31 03:30:18;;;;;;;4.45;1.90;;;;;;;;;;5083228;28;20024;-64
2020/12/31 03:32:44;;;;;;;3.17;2.00;;;;;;;;;;5084315;28;20043;-64
2020/12/31 03:35:10;;;;;;;3.03;2.10;;;;;;;;;;5084787;28;20017;-63
2020/12/31 03:37:36;;;;;;;4.60;2.53;;;;;;;;;;5084583;28;20062;-63
2020/12/31 03:40:03;;;;;;;4.47;2.60;;;;;;;;;;5082588;28;20016;-64
2020/12/31 03:42:29;;;;;;;6.45;3.38;;;;;;;;;;5063712;28;20510;-64
2020/12/31 03:44:55;;;;;;;4.57;2.60;;;;;;;;;;5064140;28;20056;-64
2020/12/31 03:47:21;;;;;;;4.43;2.95;;;;;;;;;;5064405;28;20371;-64
2020/12/31 03:49:50;;;;;;;3.65;2.33;;;;;;;;;;5064243;28;20062;-64
2020/12/31 03:52:17;;;;;;;4.03;2.53;;;;;;;;;;5065020;28;20518;-64
2020/12/31 03:54:43;;;;;;;3.05;2.13;;;;;;;;;;5064030;28;20494;-64
2020/12/31 03:57:10;;;;;;;5.20;2.08;;;;;;;;;;5064176;28;20070;-64
2020/12/31 03:59:36;;;;;;;2.97;2.10;;;;;;;;;;5064013;28;20286;-64
2020/12/31 04:02:02;;;;;;;4.35;2.15;;;;;;;;;;5064164;28;20027;-64
2020/12/31 04:04:28;;;;;;;3.58;2.42;;;;;;;;;;5064561;28;20028;-64
2020/12/31 04:06:54;;;;;;;5.50;2.55;;;;;;;;;;5064990;28;20033;-64
2020/12/31 04:09:21;;;;;;;5.20;2.75;;;;;;;;;;5064425;28;20032;-64
2020/12/31 04:11:47;;;;;;;5.55;2.88;;;;;;;;;;5063273;28;20028;-64
2020/12/31 04:14:14;;;;;;;4.05;2.67;;;;;;;;;;5065131;28;20036;-64
2020/12/31 04:16:40;;;;;;;6.20;3.17;;;;;;;;;;5083999;28;20024;-64
2020/12/31 04:19:06;;;;;;;6.32;3.15;;;;;;;;;;5084172;28;20028;-64
2020/12/31 04:21:32;;;;;;;5.10;3.10;;;;;;;;;;5084712;28;20486;-64
2020/12/31 04:23:59;;;;;;;4.60;2.88;;;;;;;;;;5067905;28;20033;-64
2020/12/31 04:26:25;;;;;;;3.80;1.98;;;;;;;;;;5065298;28;20403;-64
2020/12/31 04:28:51;;;;;;;2.28;1.80;;;;;;;;;;5067758;28;20635;-64
2020/12/31 04:31:17;;;;;;;3.60;2.25;;;;;;;;;;5067422;28;20143;-64
2020/12/31 04:33:43;;;;;;;3.10;2.00;;;;;;;;;;5080743;28;20468;-65
2020/12/31 04:36:10;;;;;;;2.30;1.83;;;;;;;;;;5089778;28;20027;-64
2020/12/31 04:38:36;;;;;;;2.65;1.65;;;;;;;;;;5110235;28;20537;-64
2020/12/31 04:41:03;;;;;;;4.38;2.38;;;;;;;;;;5104792;28;20020;-64
2020/12/31 04:43:30;;;;;;;3.38;2.25;;;;;;;;;;5083754;28;20104;-64
2020/12/31 04:45:56;;;;;;;2.67;1.80;;;;;;;;;;5070314;28;20024;-64
2020/12/31 04:48:26;;;;;;;1.80;1.40;;;;;;;;;;5070616;28;20025;-64
2020/12/31 04:50:57;;;;;;;1.65;1.20;;;;;;;;;;5070637;28;20076;-64
2020/12/31 04:53:23;;;;;;;2.03;1.35;;;;;;;;;;5073595;28;20557;-64
2020/12/31 04:55:49;;;;;;;1.20;1.10;;;;;;;;;;5090544;28;20059;-64
2020/12/31 04:58:16;;;;;;;1.75;1.20;;;;;;;;;;5090699;28;20473;-64
2020/12/31 05:00:43;;;;;;;1.40;1.08;;;;;;;;;;5089968;28;20069;-64
2020/12/31 05:03:10;;;;;;;2.83;1.10;;;;;;;;;;5089653;28;20082;-64
2020/12/31 05:05:37;;;;;;;1.67;1.20;;;;;;;;;;5090397;28;20049;-64
2020/12/31 05:08:03;;;;;;;1.80;1.13;;;;;;;;;;5091050;28;20031;-63
2020/12/31 05:10:30;;;;;;;2.22;1.00;;;;;;;;;;5090290;28;20040;-64
2020/12/31 05:13:06;;;;;;;1.98;0.93;;;;;;;;;;5088128;28;20024;-63
2020/12/31 05:15:42;;;;;;;1.00;0.77;;;;;;;;;;5090420;28;20031;-64
2020/12/31 05:18:17;;;;;;;0.77;0.77;;;;;;;;;;5090476;28;20066;-63
2020/12/31 05:20:46;;;;;;;1.33;0.90;;;;;;;;;;5074423;28;20187;-64
2020/12/31 05:23:12;;;;;;;1.10;0.70;;;;;;;;;;5069794;28;20027;-63
2020/12/31 05:25:38;;;;;;;1.35;0.80;;;;;;;;;;5069684;28;20082;-63
2020/12/31 05:28:21;;;;;;;1.63;0.93;;;;;;;;;;5070015;28;20498;-63
2020/12/31 05:30:48;;;;;;;3.20;1.13;;;;;;;;;;5074547;28;20431;-63
2020/12/31 05:33:23;;;;;;;1.15;0.80;;;;;;;;;;5089869;28;20032;-64
2020/12/31 05:35:49;;;;;;;2.03;1.23;;;;;;;;;;5089347;28;20065;-63
2020/12/31 05:38:19;;;;;;;2.22;1.63;;;;;;;;;;5089224;28;20052;-63
2020/12/31 05:41:02;;;;;;;2.13;1.35;;;;;;;;;;5075990;28;20360;-65
2020/12/31 05:43:28;;;;;;;1.58;1.05;;;;;;;;;;5075613;28;20070;-63
2020/12/31 05:46:06;;;;;;;1.92;1.25;;;;;;;;;;5089162;28;20039;-63
2020/12/31 05:48:32;;;;;;;2.15;1.48;;;;;;;;;;5089999;28;20382;-64
2020/12/31 05:50:58;;;;;;;1.70;1.50;;;;;;;;;;5087878;28;20107;-63
2020/12/31 05:53:25;;;;;;;1.52;1.30;;;;;;;;;;5089006;28;20028;-63
2020/12/31 05:55:55;;;;;;;2.15;1.30;;;;;;;;;;5089281;28;20548;-63
2020/12/31 05:58:23;;;;;;;2.47;1.63;;;;;;;;;;5089599;28;20028;-64
2020/12/31 06:01:09;;;;;;;2.25;1.38;;;;;;;;;;5087168;28;20024;-63
2020/12/31 06:03:39;;;;;;;1.83;1.25;;;;;;;;;;5087330;28;20040;-63
2020/12/31 06:06:06;;;;;;;1.73;1.17;;;;;;;;;;5089223;28;20078;-63
2020/12/31 06:08:33;;;;;;;1.95;1.20;;;;;;;;;;5081275;28;20405;-63
2020/12/31 06:11:03;;;;;;;1.65;1.27;;;;;;;;;;5068403;28;20032;-65
2020/12/31 06:13:38;;;;;;;2.85;1.55;;;;;;;;;;5075474;28;20036;-64
2020/12/31 06:16:05;;;;;;;2.35;1.60;;;;;;;;;;5070287;28;20028;-64
2020/12/31 06:18:33;;;;;;;3.28;1.90;;;;;;;;;;5074262;28;20512;-64
2020/12/31 06:21:04;;;;;;;2.80;1.50;;;;;;;;;;5086888;28;20012;-63
2020/12/31 06:23:40;;;;;;;2.00;1.13;;;;;;;;;;5085927;28;20032;-64
2020/12/31 06:26:16;;;;;;;2.92;1.90;;;;;;;;;;5068777;28;20496;-64
2020/12/31 06:28:48;;;;;;;2.05;1.50;;;;;;;;;;5068882;28;20153;-63
2020/12/31 06:31:14;;;;;;;2.40;1.23;;;;;;;;;;5077772;28;20076;-63
2020/12/31 06:33:48;;;;;;;3.92;1.67;;;;;;;;;;5066679;28;20577;-63
2020/12/31 06:36:14;;;;;;;1.88;1.23;;;;;;;;;;5072712;28;20080;-64
2020/12/31 06:38:43;;;;;;;3.22;1.20;;;;;;;;;;5086198;28;20120;-63
2020/12/31 06:41:28;;;;;;;1.88;1.25;;;;;;;;;;5082723;28;20550;-63
2020/12/31 06:44:10;;;;;;;1.85;1.13;;;;;;;;;;5066622;28;20108;-63
2020/12/31 06:46:46;;;;;;;1.92;1.05;;;;;;;;;;5069452;28;20032;-63
2020/12/31 06:49:13;;;;;;;1.98;1.33;;;;;;;;;;5086477;28;20614;-63
2020/12/31 06:51:39;;;;;;;1.30;0.82;;;;;;;;;;5085903;28;20031;-63
2020/12/31 06:54:05;;;;;;;0.90;0.90;;;;;;;;;;5086648;28;20131;-63
2020/12/31 06:56:44;;;;;;;1.48;1.00;;;;;;;;;;5085600;28;20031;-63
2020/12/31 06:59:25;;;;;;;0.82;0.60;;;;;;;;;;5086830;28;20374;-63
2020/12/31 07:01:51;;;;;;;1.30;0.88;;;;;;;;;;5084916;28;20586;-63
2020/12/31 07:04:34;;;;;;;2.30;0.90;;;;;;;;;;5075224;28;20588;-63
2020/12/31 07:07:00;;;;;;;1.13;0.90;;;;;;;;;;5069602;28;20048;-63
2020/12/31 07:09:34;;;;;;;1.33;0.80;;;;;;;;;;5086576;28;20047;-62
2020/12/31 07:12:02;;;;;;;2.08;0.88;;;;;;;;;;5086092;28;20060;-63
2020/12/31 07:14:28;;;;;;;0.88;0.70;;;;;;;;;;5085011;28;20082;-63
2020/12/31 07:16:55;;;;;;;1.50;0.73;;;;;;;;;;5086491;28;20028;-63
2020/12/31 07:19:34;;;;;;;0.90;0.80;;;;;;;;;;5085029;28;20036;-63
2020/12/31 07:22:01;;;;;;;1.63;1.02;;;;;;;;;;5086913;28;20055;-63
2020/12/31 07:24:28;;;;;;;2.20;1.05;;;;;;;;;;5082726;28;20089;-63
2020/12/31 07:26:55;;;;;;;2.90;1.40;;;;;;;;;;5080737;28;20390;-63
2020/12/31 07:29:25;;;;;;;1.83;1.40;;;;;;;;;;5066347;28;20435;-63
2020/12/31 07:31:51;;;;;;;2.50;1.60;;;;;;;;;;5085941;28;20035;-63
2020/12/31 07:34:21;;;;;;;3.83;2.20;;;;;;;;;;5086721;28;20031;-63
2020/12/31 07:36:59;;;;;;;5.63;2.95;;;;;;;;;;5085576;28;20489;-63
2020/12/31 07:39:26;;;;;;;4.65;2.45;;;;;;;;;;5077522;28;20390;-62
2020/12/31 07:42:07;;;;;;;4.50;2.67;;;;;;;;;;5086593;28;20020;-63
2020/12/31 07:44:33;;;;;;;3.38;2.28;;;;;;;;;;5086425;28;20512;-63
2020/12/31 07:47:01;;;;;;;4.50;1.60;;;;;;;;;;5085027;28;20028;-63
2020/12/31 07:49:28;;;;;;;2.08;1.25;;;;;;;;;;5083867;28;20063;-63
2020/12/31 07:52:00;;;;;;;2.20;1.30;;;;;;;;;;5082984;28;20024;-63
2020/12/31 07:54:27;;;;;;;1.67;1.20;;;;;;;;;;5084266;28;20241;-63
2020/12/31 07:56:53;;;;;;;2.28;1.60;;;;;;;;;;5080842;28;20074;-63
2020/12/31 07:59:22;;;;;;;1.65;1.27;;;;;;;;;;5083019;28;20426;-64
2020/12/31 08:01:48;;;;;;;3.20;1.60;;;;;;;;;;5087022;28;20008;-64
2020/12/31 08:04:14;;;;;;;2.47;1.40;;;;;;;;;;5089615;28;20719;-63
2020/12/31 08:06:40;;;;;;;1.65;0.93;;;;;;;;;;5088504;28;20032;-63
2020/12/31 08:09:06;;;;;;;1.42;1.05;;;;;;;;;;5088913;28;20116;-63
2020/12/31 08:11:32;;;;;;;1.88;1.10;;;;;;;;;;5089474;28;20032;-63
2020/12/31 08:14:02;;;;;;;1.15;0.90;;;;;;;;;;5088151;28;20032;-63
2020/12/31 08:16:29;;;;;;;1.27;1.00;;;;;;;;;;5074746;28;20016;-63
2020/12/31 08:18:56;;;;;;;2.25;1.33;;;;;;;;;;5067628;28;20024;-64
2020/12/31 08:21:23;;;;;;;3.22;1.20;;;;;;;;;;5068031;28;20024;-62
2020/12/31 08:23:51;;;;;;;1.70;1.02;;;;;;;;;;5073176;28;20513;-64
2020/12/31 08:26:19;;;;;;;3.20;1.17;;;;;;;;;;5087935;28;20051;-63
2020/12/31 08:28:46;;;;;;;1.45;1.10;;;;;;;;;;5087279;28;20106;-63
2020/12/31 08:31:12;;;;;;;1.95;0.80;;;;;;;;;;5087564;28;20474;-63
2020/12/31 08:33:39;;;;;;;1.60;0.90;;;;;;;;;;5082431;28;20575;-63
2020/12/31 08:36:06;;;;;;;2.85;1.10;;;;;;;;;;5085609;28;20039;-63
2020/12/31 08:38:36;;;;;;;2.60;1.05;;;;;;;;;;5087730;28;20500;-62
2020/12/31 08:41:05;;;;;;;1.63;1.00;;;;;;;;;;5072563;28;20025;-62
2020/12/31 08:43:31;;;;;;;2.10;1.20;;;;;;;;;;5069171;28;20047;-62
2020/12/31 08:45:58;;;;;;;1.77;1.20;;;;;;;;;;5083541;28;20578;-63
2020/12/31 08:48:25;;;;;;;1.92;1.13;;;;;;;;;;5087136;28;20403;-62
2020/12/31 08:51:10;;;;;;;1.20;0.90;;;;;;;;;;5086697;28;20478;-63
2020/12/31 08:53:51;;;;;;;1.40;1.15;;;;;;;;;;5085283;28;20032;-63
2020/12/31 08:56:18;;;;;;;2.28;1.15;;;;;;;;;;5068283;28;20024;-63
2020/12/31 08:58:44;;;;;;;1.92;1.40;;;;;;;;;;5067731;28;20024;-63
2020/12/31 09:01:40;;;;;;;1.48;1.00;;;;;;;;;;5082941;28;20367;-62
2020/12/31 09:04:10;;;;;;;2.22;1.25;;;;;;;;;;5087638;28;20072;-62
2020/12/31 09:06:37;;;;;;;2.70;1.42;;;;;;;;;;5088015;28;20028;-62
2020/12/31 09:09:03;;;;;;;4.05;1.50;;;;;;;;;;5087445;28;20020;-61
2020/12/31 09:11:30;;;;;;;1.63;1.20;;;;;;;;;;5086641;28;20058;-63
2020/12/31 09:14:06;;;;;;;2.10;1.50;;;;;;;;;;5086828;28;20032;-63
2020/12/31 09:16:33;;;;;;;2.47;1.45;;;;;;;;;;5088640;28;20016;-63
2020/12/31 09:19:00;;;;;;;1.60;1.25;;;;;;;;;;5086745;28;20024;-62
2020/12/31 09:21:30;;;;;;;2.42;1.50;;;;;;;;;;5074191;28;20052;-63
2020/12/31 09:23:57;;;;;;;3.35;1.70;;;;;;;;;;5068120;28;20032;-63
2020/12/31 09:26:26;;;;;;;3.47;1.52;;;;;;;;;;5068273;28;20039;-63
2020/12/31 09:28:53;;;;;;;2.78;1.60;;;;;;;;;;5079874;28;20075;-63
2020/12/31 09:31:22;;;;;;;2.83;1.52;;;;;;;;;;5088544;28;20032;-64
2020/12/31 09:33:50;;;;;;;3.15;1.50;;;;;;;;;;5087860;28;20035;-66
2020/12/31 09:36:22;;;;;;;2.15;1.30;;;;;;;;;;5086305;28;20111;-66
2020/12/31 09:38:48;;;;;;;2.90;1.52;;;;;;;;;;5087992;28;20405;-64
2020/12/31 09:41:15;;;;;;;3.78;1.60;;;;;;;;;;5087532;28;20053;-67
2020/12/31 09:43:42;;;;;;;2.88;1.80;;;;;;;;;;5087628;28;20032;-64
2020/12/31 09:46:08;;;;;;;2.40;1.75;;;;;;;;;;5074780;28;20549;-62
2020/12/31 09:48:35;;;;;;;2.70;1.52;;;;;;;;;;5066324;28;20513;-64
2020/12/31 09:51:01;;;;;;;2.90;1.50;;;;;;;;;;5068351;28;20482;-64
2020/12/31 09:53:27;;;;;;;2.33;1.60;;;;;;;;;;5066392;28;20513;-63
2020/12/31 09:55:53;;;;;;;2.88;1.40;;;;;;;;;;5074196;28;20039;-63
2020/12/31 09:58:19;;;;;;;3.42;1.83;;;;;;;;;;5087457;28;20103;-63
2020/12/31 10:00:45;;;;;;;2.42;1.40;;;;;;;;;;5087426;28;20020;-63
2020/12/31 10:03:11;;;;;;;3.38;1.73;;;;;;;;;;5087487;28;20024;-63
2020/12/31 10:05:37;;;;;;;4.43;1.50;;;;;;;;;;5080748;28;20135;-63
2020/12/31 10:08:03;;;;;;;2.75;1.40;;;;;;;;;;5086645;28;20035;-64
2020/12/31 10:10:29;;;;;;;2.63;1.40;;;;;;;;;;5086183;28;20043;-62
2020/12/31 10:12:55;;;;;;;4.15;2.25;;;;;;;;;;5086251;28;20028;-63
2020/12/31 10:15:21;;;;;;;1.95;1.30;;;;;;;;;;5085384;28;20563;-62
2020/12/31 10:17:47;;;;;;;2.10;1.40;;;;;;;;;;5086559;28;20051;-63
2020/12/31 10:20:13;;;;;;;2.03;1.20;;;;;;;;;;5087564;28;20028;-63
2020/12/31 10:22:39;;;;;;;5.65;1.75;;;;;;;;;;5085780;28;20051;-63
2020/12/31 10:25:05;;;;;;;2.50;1.30;;;;;;;;;;5082867;28;20063;-63
2020/12/31 10:27:34;;;;;;;3.72;1.77;;;;;;;;;;5085875;28;20173;-62
2020/12/31 10:30:00;;;;;;;2.83;1.63;;;;;;;;;;5086051;28;20060;-63
2020/12/31 10:32:26;;;;;;;2.08;1.30;;;;;;;;;;5086293;28;20105;-63
2020/12/31 10:34:52;;;;;;;2.20;1.60;;;;;;;;;;5075894;28;20094;-64
2020/12/31 10:37:18;;;;;;;2.30;1.17;;;;;;;;;;5087064;28;20025;-65
2020/12/31 10:39:44;;;;;;;2.10;1.35;;;;;;;;;;5087031;28;20070;-64
2020/12/31 10:42:11;;;;;;;4.30;1.50;;;;;;;;;;5086804;28;20103;-63
2020/12/31 10:44:37;;;;;;;3.65;1.75;;;;;;;;;;5079188;28;20856;-64
2020/12/31 10:47:03;;;;;;;2.00;1.45;;;;;;;;;;5067203;28;20386;-62
2020/12/31 10:49:29;;;;;;;1.98;1.35;;;;;;;;;;5067850;28;20597;-62
2020/12/31 10:51:55;;;;;;;3.72;1.73;;;;;;;;;;5081739;28;20081;-61
2020/12/31 10:54:21;;;;;;;2.63;1.60;;;;;;;;;;5079048;28;20397;-59
2020/12/31 10:56:48;;;;;;;1.88;1.10;;;;;;;;;;5085515;28;20039;-61
2020/12/31 10:59:14;;;;;;;1.40;1.08;;;;;;;;;;5084842;28;20124;-61
2020/12/31 11:01:40;;;;;;;2.30;1.13;;;;;;;;;;5085707;28;20106;-60
2020/12/31 11:04:06;;;;;;;2.95;1.50;;;;;;;;;;5084777;28;20058;-64
2020/12/31 11:06:32;;;;;;;1.83;1.38;;;;;;;;;;5085316;28;20058;-65
2020/12/31 11:08:58;;;;;;;2.33;1.30;;;;;;;;;;5085343;28;20044;-63
2020/12/31 11:11:31;;;;;;;1.60;1.20;;;;;;;;;;5080105;28;20513;-65
2020/12/31 11:13:57;;;;;;;1.58;1.27;;;;;;;;;;5082551;28;20023;-62
2020/12/31 11:16:23;;;;;;;1.83;1.20;;;;;;;;;;5084441;28;20024;-64
2020/12/31 11:18:49;;;;;;;2.17;1.30;;;;;;;;;;5084187;28;20486;-64
2020/12/31 11:21:18;;;;;;;2.10;1.40;;;;;;;;;;5083088;28;20032;-66
2020/12/31 11:23:44;;;;;;;2.08;1.15;;;;;;;;;;5083504;28;20085;-63
2020/12/31 11:26:14;;;;;;;2.75;1.70;;;;;;;;;;5084227;28;20070;-62
2020/12/31 11:28:41;;;;;;;2.35;1.55;;;;;;;;;;5083717;28;20035;-63
2020/12/31 11:31:09;;;;;;;2.38;1.60;;;;;;;;;;5082674;28;20146;-63
2020/12/31 11:33:35;;;;;;;3.10;1.65;;;;;;;;;;5084341;28;20020;-62
2020/12/31 11:36:04;;;;;;;4.18;1.60;;;;;;;;;;5083107;28;20059;-64
2020/12/31 11:38:30;;;;;;;2.38;1.48;;;;;;;;;;5075806;28;20377;-62
2020/12/31 11:40:57;;;;;;;2.42;1.60;;;;;;;;;;5068751;28;20020;-63
2020/12/31 11:43:24;;;;;;;2.08;1.55;;;;;;;;;;5083936;28;20028;-63
2020/12/31 11:45:50;;;;;;;3.33;1.60;;;;;;;;;;5083598;28;20110;-64
2020/12/31 11:48:16;;;;;;;2.97;1.95;;;;;;;;;;5082430;28;20028;-66
2020/12/31 11:50:42;;;;;;;3.20;1.80;;;;;;;;;;5083252;28;20105;-63
2020/12/31 11:53:08;;;;;;;3.42;2.00;;;;;;;;;;5072382;28;20043;-60
2020/12/31 11:55:34;;;;;;;4.63;1.70;;;;;;;;;;5083377;28;20115;-61
2020/12/31 11:58:00;;;;;;;2.40;1.48;;;;;;;;;;5084774;28;20103;-61
2020/12/31 12:00:26;;;;;;;2.10;1.30;;;;;;;;;;5086135;28;20035;-60
2020/12/31 12:02:52;;;;;;;2.33;1.60;;;;;;;;;;5084360;28;20484;-60
2020/12/31 12:05:18;;;;;;;2.40;1.77;;;;;;;;;;5084875;28;20032;-60
2020/12/31 12:07:45;;;;;;;2.90;1.40;;;;;;;;;;5084828;28;20508;-59
2020/12/31 12:10:12;;;;;;;2.78;1.90;;;;;;;;;;5084242;28;20065;-59
2020/12/31 12:12:38;;;;;;;3.90;2.05;;;;;;;;;;5079382;28;20566;-61
2020/12/31 12:15:04;;;;;;;3.78;2.28;;;;;;;;;;5085333;28;20485;-60
2020/12/31 12:17:30;;;;;;;2.13;1.60;;;;;;;;;;5086482;28;20020;-61
2020/12/31 12:19:56;;;;;;;2.78;1.88;;;;;;;;;;5085310;28;20055;-61
2020/12/31 12:22:22;;;;;;;3.15;1.73;;;;;;;;;;5084093;28;20028;-61
2020/12/31 12:24:48;;;;;;;2.63;1.80;;;;;;;;;;5084921;28;20508;-61
2020/12/31 12:27:14;;;;;;;3.95;1.80;;;;;;;;;;5084711;28;21411;-61
2020/12/31 12:29:40;;;;;;;2.50;1.70;;;;;;;;;;5083949;28;20081;-60
2020/12/31 12:32:10;;;;;;;4.18;2.80;;;;;;;;;;5085126;28;20705;-61
2020/12/31 12:34:36;;;;;;;3.38;1.70;;;;;;;;;;5085401;28;20035;-60
2020/12/31 12:37:02;;;;;;;2.25;1.55;;;;;;;;;;5083079;28;20028;-60
2020/12/31 12:39:28;;;;;;;2.70;1.25;;;;;;;;;;5084566;28;20020;-60
2020/12/31 12:41:56;;;;;;;3.75;1.90;;;;;;;;;;5083742;28;20028;-61
2020/12/31 12:44:23;;;;;;;2.70;1.20;;;;;;;;;;5085555;28;20513;-61
2020/12/31 12:46:49;;;;;;;3.38;2.10;;;;;;;;;;5084525;28;20024;-60
2020/12/31 12:49:15;;;;;;;3.35;1.60;;;;;;;;;;5086720;28;20444;-60
2020/12/31 12:51:41;;;;;;;2.10;1.38;;;;;;;;;;5086843;28;20024;-60
2020/12/31 12:54:07;;;;;;;1.42;1.13;;;;;;;;;;5087986;28;20035;-61
2020/12/31 12:56:33;;;;;;;2.88;0.98;;;;;;;;;;5088580;28;20394;-59
2020/12/31 12:58:59;;;;;;;4.25;1.48;;;;;;;;;;5089267;28;20540;-62
2020/12/31 13:01:25;;;;;;;2.90;1.60;;;;;;;;;;5088343;28;20107;-59
2020/12/31 13:03:51;;;;;;;2.50;1.40;;;;;;;;;;5084867;28;20280;-59
2020/12/31 13:06:17;;;;;;;1.25;1.00;;;;;;;;;;5088134;28;20032;-60
2020/12/31 13:08:44;;;;;;;2.00;1.00;;;;;;;;;;5087857;28;20062;-61
2020/12/31 13:11:10;;;;;;;2.40;1.50;;;;;;;;;;5087419;28;20038;-61
2020/12/31 13:13:37;;;;;;;2.35;1.25;;;;;;;;;;5083257;28;20026;-61
2020/12/31 13:16:07;;;;;;;1.30;1.15;;;;;;;;;;5087770;28;20072;-60
2020/12/31 13:18:34;;;;;;;3.85;1.23;;;;;;;;;;5088279;28;20047;-61
2020/12/31 13:21:00;;;;;;;1.45;1.00;;;;;;;;;;5087906;28;20028;-60
2020/12/31 13:23:27;;;;;;;1.90;0.90;;;;;;;;;;5070914;28;20036;-60
2020/12/31 13:25:53;;;;;;;2.13;0.95;;;;;;;;;;5087375;28;20028;-59
2020/12/31 13:28:19;;;;;;;1.88;0.80;;;;;;;;;;5087544;28;20060;-62
2020/12/31 13:30:46;;;;;;;2.05;1.02;;;;;;;;;;5087908;28;20513;-61
2020/12/31 13:33:12;;;;;;;1.95;1.10;;;;;;;;;;5071596;28;20031;-62
2020/12/31 13:35:39;;;;;;;2.33;1.10;;;;;;;;;;5086233;28;20024;-62
2020/12/31 13:38:05;;;;;;;2.03;1.13;;;;;;;;;;5087030;28;20048;-61
2020/12/31 13:40:31;;;;;;;2.35;1.00;;;;;;;;;;5087243;28;20167;-60
2020/12/31 13:42:57;;;;;;;2.08;1.20;;;;;;;;;;5068336;28;20092;-61
2020/12/31 13:45:23;;;;;;;2.45;1.17;;;;;;;;;;5082660;28;20458;-60
2020/12/31 13:47:49;;;;;;;2.15;1.10;;;;;;;;;;5086729;28;20536;-60
2020/12/31 13:50:15;;;;;;;2.00;1.10;;;;;;;;;;5087744;28;20063;-61
2020/12/31 13:52:41;;;;;;;3.58;1.70;;;;;;;;;;5086777;28;20032;-62
2020/12/31 13:55:08;;;;;;;4.28;1.70;;;;;;;;;;5076794;28;20039;-61
2020/12/31 13:57:36;;;;;;;3.25;1.40;;;;;;;;;;5085542;28;20027;-61
2020/12/31 14:00:03;;;;;;;2.42;1.60;;;;;;;;;;5084541;28;20650;-63
2020/12/31 14:02:29;;;;;;;3.10;1.60;;;;;;;;;;5086548;28;20032;-61
2020/12/31 14:04:55;;;;;;;2.05;1.30;;;;;;;;;;5085123;28;20028;-61
2020/12/31 14:07:21;;;;;;;3.42;1.33;;;;;;;;;;5086271;28;20995;-63
2020/12/31 14:09:47;;;;;;;1.20;1.10;;;;;;;;;;5082233;28;20016;-61
2020/12/31 14:12:13;;;;;;;2.08;1.40;;;;;;;;;;5084740;28;20024;-62
2020/12/31 14:14:39;;;;;;;2.83;1.40;;;;;;;;;;5085325;28;20027;-61
2020/12/31 14:17:05;;;;;;;2.13;1.10;;;;;;;;;;5085613;28;20501;-62
2020/12/31 14:19:31;;;;;;;5.60;2.40;;;;;;;;;;5085270;28;20028;-60
2020/12/31 14:21:57;;;;;;;5.00;2.30;;;;;;;;;;5083569;28;20429;-60
2020/12/31 14:24:23;;;;;;;3.03;2.40;;;;;;;;;;5083659;28;20075;-61
2020/12/31 14:26:50;;;;;;;3.72;1.52;;;;;;;;;;5085065;28;20031;-61
2020/12/31 14:29:17;;;;;;;1.65;0.98;;;;;;;;;;5089143;28;20064;-61
2020/12/31 14:31:44;;;;;;;1.60;0.98;;;;;;;;;;5084077;28;20043;-63
2020/12/31 14:34:11;;;;;;;1.67;1.00;;;;;;;;;;5083906;28;20020;-61
2020/12/31 14:36:40;;;;;;;1.55;1.10;;;;;;;;;;5084521;28;20064;-62
2020/12/31 14:39:07;;;;;;;2.40;0.93;;;;;;;;;;5084681;28;20028;-63
2020/12/31 14:41:37;;;;;;;3.10;1.30;;;;;;;;;;5085091;28;20027;-63
2020/12/31 14:44:04;;;;;;;1.83;1.20;;;;;;;;;;5085051;28;20516;-62